Time;durP1;ratioP1;P1;durP2;ratioP2;P2;SDS_P1;SDS_P2;PMS_P1;PMS_P2;Temp;Humidity;BMP_temperature;BMP_pressure;BME280_temperature;BME280_humidity;BME280_pressure;Samples;Min_cycle;Max_cycle;Signal;HPM_P1;HPM_P2
2022/11/03 00:04:41;;;;;;;28.25;0.55;;;;;;;10.00;100.00;101548.91;10457263;28;20131;-75
2022/11/03 00:09:43;;;;;;;0.38;0.08;;;;;;;9.97;100.00;101539.38;10458977;28;20045;-76
2022/11/03 00:14:44;;;;;;;0.77;0.20;;;;;;;9.97;100.00;101541.06;10456910;28;20072;-75
2022/11/03 00:19:46;;;;;;;0.47;0.20;;;;;;;9.97;100.00;101526.53;10466590;28;20051;-76
2022/11/03 00:24:47;;;;;;;0.00;0.00;;;;;;;10.03;100.00;101519.84;10499085;28;20048;-76
2022/11/03 00:29:49;;;;;;;0.52;0.13;;;;;;;10.00;100.00;101520.59;10500143;28;20124;-75
2022/11/03 00:34:51;;;;;;;0.77;0.77;;;;;;;10.04;100.00;101507.00;10497548;28;20044;-75
2022/11/03 00:39:52;;;;;;;0.13;0.10;;;;;;;9.97;100.00;101515.31;10497198;28;20044;-75
2022/11/03 00:44:54;;;;;;;1.05;0.75;;;;;;;9.99;100.00;101504.25;10498766;28;20106;-77
2022/11/03 00:49:55;;;;;;;0.57;0.32;;;;;;;10.14;100.00;101496.25;10469725;28;20120;-76
2022/11/03 00:54:57;;;;;;;0.30;0.25;;;;;;;10.06;100.00;101489.94;10439075;28;20456;-76
2022/11/03 00:59:58;;;;;;;4.00;0.43;;;;;;;10.19;100.00;101480.09;10456131;28;20124;-75
2022/11/03 01:10:20;;;;;;;2.00;0.17;;;;;;;10.25;100.00;101449.41;10457123;28;20128;-76
2022/11/03 01:15:21;;;;;;;0.10;0.10;;;;;;;10.18;100.00;101447.41;10456821;28;20037;-76
2022/11/03 01:20:23;;;;;;;0.13;0.13;;;;;;;10.16;100.00;101440.50;10456333;28;20120;-76
2022/11/03 01:25:25;;;;;;;0.10;0.10;;;;;;;10.10;100.00;101434.28;10456212;28;20049;-75
2022/11/03 01:30:26;;;;;;;0.10;0.10;;;;;;;10.02;100.00;101431.41;10454958;28;20045;-76
2022/11/03 01:35:28;;;;;;;0.75;0.47;;;;;;;10.04;100.00;101427.22;10438258;28;20572;-75
2022/11/03 01:40:31;;;;;;;0.10;0.03;;;;;;;10.13;100.00;101417.25;10456040;28;20527;-76
2022/11/03 01:45:32;;;;;;;0.08;0.00;;;;;;;10.04;100.00;101409.19;10456550;28;20507;-75
2022/11/03 01:50:34;;;;;;;0.70;0.40;;;;;;;10.01;100.00;101409.09;10486146;28;20096;-76
2022/11/03 01:55:38;;;;;;;0.00;0.00;;;;;;;10.01;100.00;101403.94;10496065;28;20072;-75
2022/11/03 02:00:43;;;;;;;2.45;1.25;;;;;;;10.02;100.00;101390.22;10495714;28;20072;-76
2022/11/03 02:05:47;;;;;;;0.43;0.20;;;;;;;10.14;100.00;101380.38;10496900;28;20075;-74
2022/11/03 02:10:50;;;;;;;0.73;0.73;;;;;;;9.97;100.00;101377.22;10478806;28;20484;-76
2022/11/03 02:15:56;;;;;;;0.40;0.32;;;;;;;10.06;100.00;101357.75;10496775;28;20055;-76
2022/11/03 02:21:34;;;;;;;0.20;0.10;;;;;;;10.08;100.00;101367.31;10504414;28;20060;-75
2022/11/03 02:26:38;;;;;;;0.20;0.20;;;;;;;10.08;100.00;101354.44;10482367;28;20076;-77
2022/11/03 02:31:57;;;;;;;3.13;0.20;;;;;;;10.18;100.00;101344.44;10485310;28;20057;-76
2022/11/03 02:37:06;;;;;;;0.17;0.10;;;;;;;10.04;100.00;101342.25;10460713;28;20041;-76
2022/11/03 02:42:10;;;;;;;0.08;0.08;;;;;;;10.25;100.00;101330.94;10461811;28;20051;-76
2022/11/03 02:47:13;;;;;;;0.00;0.00;;;;;;;10.14;100.00;101323.75;10494619;28;20079;-76
2022/11/03 02:52:41;;;;;;;0.00;0.00;;;;;;;10.15;100.00;101325.50;10501586;28;20498;-75
2022/11/03 02:58:04;;;;;;;0.00;0.00;;;;;;;10.14;100.00;101310.88;10502544;28;20454;-77
2022/11/03 03:03:11;;;;;;;0.50;0.40;;;;;;;10.19;100.00;101312.72;10501414;28;20052;-76
2022/11/03 03:08:14;;;;;;;1.02;0.63;;;;;;;10.15;100.00;101304.91;10485142;28;20091;-77
2022/11/03 03:13:20;;;;;;;0.30;0.30;;;;;;;10.15;100.00;101302.31;10500599;28;20059;-76
2022/11/03 03:18:29;;;;;;;0.00;0.00;;;;;;;10.20;100.00;101296.44;10501711;28;20124;-76
2022/11/03 03:23:35;;;;;;;0.10;0.10;;;;;;;10.21;100.00;101286.19;10500389;28;20507;-76
2022/11/03 03:29:08;;;;;;;0.00;0.00;;;;;;;10.29;100.00;101282.16;10499938;28;20484;-76
2022/11/03 03:34:11;;;;;;;0.00;0.00;;;;;;;10.46;100.00;101275.03;10499329;28;20053;-76
2022/11/03 03:39:36;;;;;;;0.30;0.10;;;;;;;10.41;100.00;101275.72;10485777;28;20068;-76
2022/11/03 03:44:40;;;;;;;0.10;0.00;;;;;;;10.28;100.00;101279.56;10499425;28;20097;-75
2022/11/03 03:49:41;;;;;;;0.45;0.20;;;;;;;10.36;100.00;101262.66;10500673;28;20073;-76
2022/11/03 03:54:43;;;;;;;0.17;0.10;;;;;;;10.47;100.00;101251.00;10499110;28;20053;-77
2022/11/03 03:59:44;;;;;;;0.22;0.10;;;;;;;10.34;100.00;101248.84;10492646;28;20124;-76
2022/11/03 04:04:46;;;;;;;0.38;0.38;;;;;;;10.43;100.00;101245.72;10464305;28;20076;-76
2022/11/03 04:09:48;;;;;;;0.40;0.13;;;;;;;10.42;100.00;101242.28;10462960;28;20139;-75
2022/11/03 04:25:33;;;;;;;0.40;0.40;;;;;;;10.60;100.00;101210.19;10457801;28;20546;-76
2022/11/03 04:30:35;;;;;;;0.10;0.10;;;;;;;10.50;100.00;101203.00;10456462;28;20041;-75
2022/11/03 04:35:36;;;;;;;0.00;0.00;;;;;;;10.54;100.00;101202.25;10439727;28;20139;-76
2022/11/03 04:40:44;;;;;;;0.57;0.05;;;;;;;10.57;100.00;101204.94;10455588;28;20069;-76
2022/11/03 04:45:51;;;;;;;0.10;0.05;;;;;;;10.50;100.00;101198.72;10456956;28;20047;-77
2022/11/03 04:50:57;;;;;;;0.08;0.08;;;;;;;10.46;100.00;101190.00;10439177;28;20471;-76
2022/11/03 04:55:59;;;;;;;0.00;0.00;;;;;;;10.44;100.00;101183.97;10456898;28;20041;-76
2022/11/03 05:01:12;;;;;;;0.20;0.00;;;;;;;10.46;100.00;101176.28;10456693;28;20489;-76
2022/11/03 05:06:16;;;;;;;0.35;0.22;;;;;;;10.37;100.00;101176.88;10457268;28;20481;-76
2022/11/03 05:11:20;;;;;;;0.20;0.10;;;;;;;10.39;100.00;101167.47;10455115;28;20048;-75
2022/11/03 05:16:23;;;;;;;0.00;0.00;;;;;;;10.37;100.00;101174.28;10456437;28;20065;-75
2022/11/03 05:21:26;;;;;;;0.00;0.00;;;;;;;10.38;100.00;101172.59;10455351;28;20056;-75
2022/11/03 05:26:34;;;;;;;1.35;0.47;;;;;;;10.30;100.00;101170.63;10456666;28;20049;-75
2022/11/03 05:31:36;;;;;;;0.10;0.10;;;;;;;10.49;100.00;101160.94;10457406;28;20055;-75
2022/11/03 05:36:37;;;;;;;0.10;0.03;;;;;;;10.60;100.00;101148.38;10455992;28;20140;-76
2022/11/03 05:41:39;;;;;;;0.47;0.22;;;;;;;10.57;100.00;101144.00;10455423;28;20133;-76
2022/11/03 05:46:41;;;;;;;0.45;0.22;;;;;;;10.59;100.00;101141.47;10456161;28;20060;-76
2022/11/03 05:51:44;;;;;;;0.32;0.30;;;;;;;10.59;100.00;101142.31;10455579;28;20080;-75
2022/11/03 05:56:46;;;;;;;0.43;0.30;;;;;;;10.65;100.00;101144.22;10462218;28;20053;-75
2022/11/03 06:01:48;;;;;;;2.55;0.30;;;;;;;10.78;100.00;101133.41;10464049;28;20124;-76
2022/11/03 06:06:53;;;;;;;0.20;0.10;;;;;;;10.71;100.00;101131.50;10462650;28;20045;-76
2022/11/03 06:11:57;;;;;;;1.65;0.88;;;;;;;10.80;100.00;101125.72;10461627;28;20137;-75
2022/11/03 06:17:04;;;;;;;0.35;0.20;;;;;;;10.79;100.00;101118.84;10462665;28;20072;-76
2022/11/03 06:22:21;;;;;;;0.00;0.00;;;;;;;10.84;100.00;101122.41;10461599;28;20048;-76
2022/11/03 06:27:24;;;;;;;0.45;0.32;;;;;;;10.85;100.00;101131.91;10473686;28;20476;-76
2022/11/03 06:32:27;;;;;;;0.00;0.00;;;;;;;10.89;100.00;101123.41;10464429;28;20091;-75
2022/11/03 06:37:33;;;;;;;0.40;0.35;;;;;;;10.91;100.00;101114.03;10460756;28;20077;-75
2022/11/03 06:42:35;;;;;;;0.10;0.10;;;;;;;10.81;100.00;101121.47;10460594;28;20144;-76
2022/11/03 06:47:39;;;;;;;0.00;0.00;;;;;;;10.71;100.00;101118.63;10443907;28;20083;-76
2022/11/03 06:52:46;;;;;;;5.85;0.38;;;;;;;10.80;100.00;101115.41;10461396;28;20053;-76
2022/11/03 06:57:53;;;;;;;0.10;0.10;;;;;;;10.88;100.00;101110.50;10461200;28;20037;-76
2022/11/03 07:03:13;;;;;;;1.08;0.38;;;;;;;10.95;100.00;101112.41;10460682;28;20116;-75
2022/11/03 07:08:21;;;;;;;;;;;;;;;10.97;100.00;101105.59;10462435;28;20106;-76
2022/11/03 07:13:23;;;;;;;0.93;0.63;;;;;;;10.92;100.00;101096.84;10459364;28;20330;-75
2022/11/03 07:18:33;;;;;;;1.50;0.30;;;;;;;10.93;100.00;101099.50;10458990;28;20040;-76
2022/11/03 07:23:34;;;;;;;1.08;0.05;;;;;;;10.95;100.00;101094.38;10458948;28;20052;-75
2022/11/03 07:28:38;;;;;;;0.40;0.40;;;;;;;11.01;100.00;101081.63;10460066;28;20503;-75
2022/11/03 07:33:39;;;;;;;2.20;0.28;;;;;;;11.05;100.00;101078.31;10458616;28;20468;-76
2022/11/03 07:38:43;;;;;;;0.68;0.52;;;;;;;10.99;100.00;101083.28;10459629;28;20052;-76
2022/11/03 07:43:56;;;;;;;0.40;0.32;;;;;;;11.10;100.00;101073.25;10458200;28;20045;-76
2022/11/03 07:49:01;;;;;;;1.20;0.80;;;;;;;11.11;100.00;101075.00;10459155;28;20049;-76
2022/11/03 07:54:14;;;;;;;0.28;0.28;;;;;;;11.14;100.00;101076.78;10458899;28;20488;-76
2022/11/03 07:59:20;;;;;;;0.38;0.08;;;;;;;11.27;100.00;101066.00;10458620;28;20116;-77
2022/11/03 08:04:24;;;;;;;2.33;0.30;;;;;;;11.47;100.00;101057.88;10458520;28;20136;-76
2022/11/03 08:09:26;;;;;;;1.27;0.73;;;;;;;11.59;100.00;101032.34;10457766;28;20045;-77
2022/11/03 08:14:27;;;;;;;0.50;0.35;;;;;;;11.74;100.00;101032.72;10469383;28;20071;-79
2022/11/03 08:19:29;;;;;;;3.35;1.90;;;;;;;12.00;100.00;101009.25;10456749;28;20076;-79
2022/11/03 08:24:31;;;;;;;0.10;0.10;;;;;;;12.29;100.00;100990.91;10466470;28;20083;-79
2022/11/03 08:29:32;;;;;;;1.08;0.50;;;;;;;13.13;100.00;100971.75;10469204;28;20048;-79
2022/11/03 08:34:37;;;;;;;0.43;0.30;;;;;;;12.81;100.00;100957.41;10457621;28;20100;-79
2022/11/03 08:39:38;;;;;;;0.47;0.20;;;;;;;12.83;100.00;100957.44;10456849;28;20052;-79
2022/11/03 08:44:40;;;;;;;1.20;0.50;;;;;;;12.94;100.00;100945.56;10442422;28;20083;-80
2022/11/03 08:49:41;;;;;;;0.10;0.10;;;;;;;12.73;100.00;100934.84;10449054;28;20516;-80
2022/11/03 08:54:43;;;;;;;0.17;0.17;;;;;;;12.76;100.00;100934.91;10456139;28;20076;-80
2022/11/03 08:59:45;;;;;;;0.10;0.10;;;;;;;13.13;100.00;100928.63;10455246;28;20045;-79
2022/11/03 09:04:46;;;;;;;1.77;0.40;;;;;;;13.06;100.00;100913.00;10460481;28;20459;-79
2022/11/03 09:09:48;;;;;;;0.55;0.30;;;;;;;13.18;100.00;100903.69;10442810;28;20119;-80
2022/11/03 09:15:10;;;;;;;0.00;0.00;;;;;;;13.00;100.00;100893.94;10455949;28;20350;-79
2022/11/03 09:20:12;;;;;;;0.30;0.20;;;;;;;13.00;100.00;100875.81;10440365;28;20045;-80
2022/11/03 09:25:13;;;;;;;0.20;0.17;;;;;;;13.02;100.00;100868.97;10456564;28;20065;-80
2022/11/03 09:30:16;;;;;;;0.95;0.47;;;;;;;13.11;100.00;100844.09;10463989;28;20041;-78
2022/11/03 09:35:19;;;;;;;3.70;0.13;;;;;;;13.31;100.00;100836.63;10466312;28;20480;-79
2022/11/03 09:40:21;;;;;;;0.93;0.47;;;;;;;13.42;100.00;100834.22;10490896;28;20048;-80
2022/11/03 09:45:22;;;;;;;0.00;0.00;;;;;;;13.59;100.00;100809.38;10460260;28;20110;-80
2022/11/03 09:50:24;;;;;;;0.10;0.10;;;;;;;13.61;100.00;100789.56;10456614;28;20048;-81
2022/11/03 09:55:26;;;;;;;14.55;1.15;;;;;;;13.71;100.00;100781.91;10436628;28;20068;-81
2022/11/03 10:00:28;;;;;;;0.93;0.32;;;;;;;13.86;100.00;100757.88;10460515;28;20045;-81
2022/11/03 10:05:30;;;;;;;1.25;0.47;;;;;;;13.85;100.00;100745.81;10460857;28;20752;-80
2022/11/03 10:10:33;;;;;;;0.73;0.32;;;;;;;13.82;100.00;100754.41;10466223;28;20071;-79
2022/11/03 10:15:34;;;;;;;0.25;0.22;;;;;;;13.67;100.00;100736.13;10457739;28;20073;-80
2022/11/03 10:20:36;;;;;;;0.30;0.20;;;;;;;13.54;100.00;100748.94;10465635;28;20124;-80
2022/11/03 10:25:39;;;;;;;0.93;0.38;;;;;;;13.62;100.00;100729.19;10449940;28;20044;-80
2022/11/03 10:30:59;;;;;;;0.00;0.00;;;;;;;13.65;100.00;100707.63;10466861;28;20060;-79
2022/11/03 10:36:16;;;;;;;5.63;0.88;;;;;;;13.66;100.00;100698.16;10448087;28;20493;-80
2022/11/03 10:41:18;;;;;;;0.28;0.20;;;;;;;13.69;100.00;100688.72;10471258;28;20123;-80
2022/11/03 10:46:21;;;;;;;0.00;0.00;;;;;;;13.55;100.00;100675.63;10449070;28;20531;-80
2022/11/03 10:51:46;;;;;;;0.00;0.00;;;;;;;13.55;100.00;100669.59;10448180;28;20049;-78
2022/11/03 10:56:49;;;;;;;0.25;0.17;;;;;;;13.67;100.00;100648.09;10441867;28;20130;-80
2022/11/03 11:01:51;;;;;;;0.75;0.60;;;;;;;13.66;100.00;100636.03;10440173;28;20102;-78
2022/11/03 11:06:53;;;;;;;0.60;0.38;;;;;;;13.63;100.00;100637.75;10460266;28;20120;-79
2022/11/03 11:12:03;;;;;;;2.35;1.13;;;;;;;13.67;100.00;100623.09;10468175;28;20416;-79
2022/11/03 11:17:25;;;;;;;5.43;0.32;;;;;;;13.70;100.00;100617.94;10436528;28;20124;-79
2022/11/03 11:22:26;;;;;;;0.00;0.00;;;;;;;13.81;100.00;100610.28;10457820;28;20464;-79
2022/11/03 11:27:31;;;;;;;2.03;0.63;;;;;;;13.80;100.00;100593.84;10449736;28;20055;-78
2022/11/03 11:32:35;;;;;;;13.52;0.57;;;;;;;13.85;100.00;100574.91;10442969;28;20479;-79
2022/11/03 11:37:37;;;;;;;0.20;0.10;;;;;;;13.87;100.00;100565.41;10432874;28;20049;-79
2022/11/03 11:43:02;;;;;;;0.30;0.20;;;;;;;13.99;100.00;100541.31;10456047;28;20055;-79
2022/11/03 11:48:16;;;;;;;0.55;0.50;;;;;;;14.18;100.00;100537.13;10460231;28;20111;-79
2022/11/03 11:53:21;;;;;;;0.32;0.22;;;;;;;14.65;100.00;100504.47;10447739;28;20406;-79
2022/11/03 11:58:44;;;;;;;0.30;0.10;;;;;;;14.74;100.00;100491.56;10444494;28;20055;-79
2022/11/03 12:03:46;;;;;;;1.42;0.43;;;;;;;14.98;100.00;100487.28;10455157;28;20150;-79
2022/11/03 12:08:47;;;;;;;6.00;0.68;;;;;;;14.90;100.00;100492.44;10452975;28;20039;-79
2022/11/03 12:13:52;;;;;;;0.32;0.20;;;;;;;14.62;100.00;100491.50;10457375;28;20455;-79
2022/11/03 12:18:54;;;;;;;0.52;0.43;;;;;;;14.50;100.00;100475.03;10480757;28;20048;-79
2022/11/03 12:23:55;;;;;;;5.05;0.22;;;;;;;14.40;100.00;100461.19;10455819;28;20226;-79
2022/11/03 12:28:57;;;;;;;3.50;0.30;;;;;;;14.38;100.00;100459.47;10446035;28;20099;-80
2022/11/03 12:33:58;;;;;;;0.10;0.03;;;;;;;14.43;100.00;100424.06;10448053;28;20119;-80
2022/11/03 12:39:00;;;;;;;1.15;0.30;;;;;;;14.43;100.00;100432.72;10467196;28;20080;-80
2022/11/03 12:44:01;;;;;;;0.63;0.10;;;;;;;14.50;100.00;100423.22;10448525;28;20076;-79
2022/11/03 12:49:03;;;;;;;0.10;0.10;;;;;;;14.63;100.00;100394.72;10459679;28;20053;-79
2022/11/03 12:54:04;;;;;;;0.10;0.10;;;;;;;14.83;100.00;100385.25;10456468;28;20058;-80
2022/11/03 12:59:06;;;;;;;0.00;0.00;;;;;;;14.99;100.00;100383.50;10443317;28;20124;-79
2022/11/03 13:04:08;;;;;;;0.20;0.20;;;;;;;14.90;100.00;100361.06;10455988;28;20399;-80
2022/11/03 13:09:10;;;;;;;0.90;0.90;;;;;;;14.73;100.00;100349.81;10433212;28;20079;-80
2022/11/03 13:14:12;;;;;;;0.20;0.20;;;;;;;14.87;100.00;100329.91;10454924;28;20044;-79
2022/11/03 13:19:14;;;;;;;0.05;0.03;;;;;;;14.79;100.00;100333.38;10453328;28;20471;-79
2022/11/03 13:24:16;;;;;;;1.08;0.32;;;;;;;14.74;100.00;100323.03;10447043;28;20107;-80
2022/11/03 13:29:17;;;;;;;0.20;0.10;;;;;;;14.74;100.00;100304.88;10442914;28;20072;-79
2022/11/03 13:34:19;;;;;;;0.32;0.25;;;;;;;14.71;100.00;100300.56;10450151;28;20068;-79
2022/11/03 13:39:20;;;;;;;0.10;0.10;;;;;;;14.63;100.00;100283.25;10441586;28;20041;-78
2022/11/03 13:44:22;;;;;;;0.68;0.20;;;;;;;14.59;100.00;100278.06;10441213;28;20071;-78
2022/11/03 13:49:24;;;;;;;0.43;0.30;;;;;;;14.54;100.00;100261.66;10455792;28;20509;-78
2022/11/03 13:54:46;;;;;;;0.32;0.20;;;;;;;14.48;100.00;100256.47;10439667;28;20064;-79
2022/11/03 14:00:13;;;;;;;0.30;0.10;;;;;;;14.44;100.00;100254.75;10429587;28;20378;-78
2022/11/03 14:05:14;;;;;;;0.57;0.52;;;;;;;14.47;100.00;100234.00;10442060;28;20049;-78
2022/11/03 14:10:16;;;;;;;0.10;0.10;;;;;;;14.38;100.00;100223.66;10438784;28;20496;-79
2022/11/03 14:15:17;;;;;;;0.08;0.00;;;;;;;14.33;100.00;100220.22;10452337;28;20455;-79
2022/11/03 14:20:19;;;;;;;0.00;0.00;;;;;;;14.19;100.00;100213.28;10442818;28;20103;-78
2022/11/03 14:25:21;;;;;;;0.55;0.40;;;;;;;14.22;100.00;100199.47;10447441;28;20049;-78
2022/11/03 14:30:22;;;;;;;0.50;0.17;;;;;;;14.30;100.00;100189.94;10453292;28;20121;-79
2022/11/03 14:35:25;;;;;;;0.03;0.03;;;;;;;14.11;100.00;100189.13;10448001;28;20049;-79
2022/11/03 14:45:46;;;;;;;0.20;0.17;;;;;;;13.92;100.00;100162.38;10447607;28;20148;-78
2022/11/03 14:50:49;;;;;;;0.52;0.13;;;;;;;13.93;100.00;100164.06;10448632;28;20045;-79
2022/11/03 14:55:50;;;;;;;0.90;0.47;;;;;;;13.92;100.00;100170.97;10462185;28;20073;-78
2022/11/03 15:00:52;;;;;;;0.00;0.00;;;;;;;13.57;100.00;100202.00;10467426;28;20052;-79
2022/11/03 15:05:54;;;;;;;2.80;1.20;;;;;;;13.04;100.00;100222.47;10460306;28;20071;-78
2022/11/03 15:10:56;;;;;;;0.10;0.10;;;;;;;12.82;100.00;100237.88;10447764;28;20039;-79
2022/11/03 15:15:57;;;;;;;0.80;0.73;;;;;;;12.13;100.00;100260.59;10448130;28;20041;-79
2022/11/03 15:20:59;;;;;;;1.65;0.70;;;;;;;12.03;100.00;100280.31;10445644;28;20128;-79
2022/11/03 15:26:01;;;;;;;5.25;0.10;;;;;;;11.93;100.00;100288.75;10438882;28;20053;-79
2022/11/03 15:31:02;;;;;;;0.40;0.10;;;;;;;11.78;100.00;100294.63;10432673;28;20112;-78
2022/11/03 15:36:06;;;;;;;0.13;0.13;;;;;;;11.59;100.00;100309.88;10437572;28;20091;-79
2022/11/03 15:41:18;;;;;;;0.17;0.17;;;;;;;11.52;100.00;100308.09;10446036;28;20040;-80
2022/11/03 15:46:19;;;;;;;0.43;0.10;;;;;;;11.40;100.00;100319.13;10447639;28;20094;-80
2022/11/03 15:51:21;;;;;;;0.60;0.38;;;;;;;11.34;100.00;100308.72;10451581;28;20044;-79
2022/11/03 15:56:22;;;;;;;0.00;0.00;;;;;;;11.18;100.00;100307.66;10441574;28;20057;-80
2022/11/03 16:01:24;;;;;;;0.00;0.00;;;;;;;11.07;100.00;100383.13;10441696;28;20136;-79
2022/11/03 16:06:25;;;;;;;0.22;0.10;;;;;;;10.97;100.00;100404.47;10443472;28;20049;-80
2022/11/03 16:11:47;;;;;;;0.28;0.28;;;;;;;10.90;100.00;100428.41;10437385;28;20048;-80
2022/11/03 16:16:49;;;;;;;2.15;0.35;;;;;;;10.85;100.00;100430.00;10443849;28;20128;-81
2022/11/03 16:21:50;;;;;;;0.22;0.17;;;;;;;10.82;100.00;100422.25;10420627;28;20041;-80
2022/11/03 16:26:52;;;;;;;0.52;0.25;;;;;;;10.79;100.00;100405.88;10434395;28;20128;-79
2022/11/03 16:31:53;;;;;;;0.00;0.00;;;;;;;10.74;100.00;100414.38;10434843;28;20408;-80
2022/11/03 16:36:55;;;;;;;0.43;0.38;;;;;;;10.78;100.00;100401.56;10431078;28;20048;-78
2022/11/03 16:41:57;;;;;;;0.40;0.10;;;;;;;10.70;100.00;100392.81;10452203;28;20087;-80
2022/11/03 16:46:58;;;;;;;0.88;0.60;;;;;;;10.69;100.00;100396.25;10432843;28;20047;-80
2022/11/03 16:52:00;;;;;;;0.00;0.00;;;;;;;10.71;100.00;100389.41;10420962;28;20042;-80
2022/11/03 16:57:02;;;;;;;1.55;1.20;;;;;;;10.66;100.00;100385.91;10426292;28;20510;-81
2022/11/03 17:02:05;;;;;;;0.40;0.40;;;;;;;10.63;100.00;100375.53;10452712;28;20160;-80
2022/11/03 17:07:12;;;;;;;0.20;0.20;;;;;;;10.62;100.00;100384.97;10438021;28;20056;-80
2022/11/03 17:12:14;;;;;;;0.10;0.10;;;;;;;10.58;100.00;100387.47;10430713;28;20041;-79
2022/11/03 17:17:16;;;;;;;0.52;0.30;;;;;;;10.51;100.00;100388.22;10440864;28;20098;-80
2022/11/03 17:22:19;;;;;;;0.30;0.15;;;;;;;10.46;100.00;100399.28;10432968;28;20488;-80
2022/11/03 17:27:28;;;;;;;0.68;0.45;;;;;;;10.41;100.00;100400.91;10425694;28;20077;-81
2022/11/03 17:32:39;;;;;;;2.93;0.40;;;;;;;10.36;100.00;100404.19;10467981;28;20044;-80
2022/11/03 17:37:41;;;;;;;1.52;0.57;;;;;;;10.32;100.00;100405.84;10435663;28;20546;-80
2022/11/03 17:42:43;;;;;;;0.90;0.52;;;;;;;10.28;100.00;100410.06;10438493;28;20055;-80
2022/11/03 17:47:45;;;;;;;0.10;0.10;;;;;;;10.29;100.00;100395.50;10420382;28;20043;-81
2022/11/03 17:52:48;;;;;;;0.15;0.15;;;;;;;10.27;100.00;100397.19;10446899;28;20034;-79
2022/11/03 17:57:50;;;;;;;0.10;0.10;;;;;;;10.27;100.00;100413.50;10439510;28;20524;-80
2022/11/03 18:02:54;;;;;;;0.17;0.17;;;;;;;10.27;100.00;100404.91;10443480;28;20385;-80
2022/11/03 18:07:57;;;;;;;4.70;0.40;;;;;;;10.29;100.00;100395.50;10442038;28;20468;-79
2022/11/03 18:13:15;;;;;;;0.00;0.00;;;;;;;10.30;100.00;100376.66;10410156;28;20049;-80
2022/11/03 18:18:24;;;;;;;2.95;0.30;;;;;;;10.31;100.00;100386.13;10442540;28;20114;-80
2022/11/03 18:23:31;;;;;;;0.20;0.20;;;;;;;10.34;100.00;100378.44;10448230;28;20048;-80
2022/11/03 18:28:32;;;;;;;0.15;0.15;;;;;;;10.36;100.00;100381.91;10440018;28;20463;-80
2022/11/03 18:33:35;;;;;;;4.22;2.00;;;;;;;10.40;100.00;100378.56;10446256;28;20045;-80
2022/11/03 18:38:40;;;;;;;1.10;0.45;;;;;;;10.44;100.00;100375.22;10426067;28;20049;-80
2022/11/03 18:43:41;;;;;;;0.52;0.52;;;;;;;10.52;100.00;100377.06;10414168;28;20145;-80
2022/11/03 18:48:43;;;;;;;0.43;0.32;;;;;;;10.51;100.00;100380.47;10450426;28;20396;-80
2022/11/03 18:53:44;;;;;;;0.55;0.52;;;;;;;10.57;100.00;100365.13;10416282;28;20049;-79
2022/11/03 18:58:49;;;;;;;0.43;0.38;;;;;;;10.59;100.00;100356.59;10461017;28;20140;-80
2022/11/03 19:03:51;;;;;;;0.77;0.38;;;;;;;10.58;100.00;100352.28;10455714;28;20065;-79
2022/11/03 19:08:58;;;;;;;1.70;0.88;;;;;;;10.62;100.00;100337.72;10443241;28;20064;-80
2022/11/03 19:14:00;;;;;;;0.95;0.52;;;;;;;10.62;100.00;100327.44;10461527;28;20045;-80
2022/11/03 19:19:01;;;;;;;15.38;0.63;;;;;;;10.64;100.00;100320.59;10460148;28;20079;-80
2022/11/03 19:24:03;;;;;;;0.73;0.63;;;;;;;10.71;100.00;100306.97;10442384;28;20067;-79
2022/11/03 19:29:11;;;;;;;0.47;0.38;;;;;;;10.74;100.00;100294.16;10457092;28;20074;-79
2022/11/03 19:34:18;;;;;;;0.22;0.22;;;;;;;10.81;100.00;100271.03;10440959;28;20048;-80
2022/11/03 19:39:30;;;;;;;1.33;0.85;;;;;;;10.79;100.00;100269.31;10450056;28;20076;-80
2022/11/03 19:44:31;;;;;;;0.47;0.43;;;;;;;10.79;100.00;100253.00;10454986;28;20091;-80
2022/11/03 19:49:38;;;;;;;1.35;0.77;;;;;;;10.87;100.00;100246.22;10449974;28;20076;-80
2022/11/03 19:54:41;;;;;;;0.95;0.22;;;;;;;10.88;100.00;100232.50;10463072;28;20047;-79
2022/11/03 19:59:44;;;;;;;0.43;0.38;;;;;;;10.90;100.00;100224.81;10469619;28;20049;-80
2022/11/03 20:04:46;;;;;;;0.68;0.60;;;;;;;10.85;100.00;100216.13;10444774;28;20310;-80
2022/11/03 20:09:47;;;;;;;0.98;0.50;;;;;;;10.89;100.00;100223.06;10453207;28;20040;-80
2022/11/03 20:14:49;;;;;;;3.00;0.47;;;;;;;10.92;100.00;100215.34;10452934;28;20044;-79
2022/11/03 20:19:52;;;;;;;0.30;0.30;;;;;;;10.93;100.00;100224.81;10453270;28;20087;-80
2022/11/03 20:24:57;;;;;;;0.70;0.40;;;;;;;10.68;100.00;100224.50;10454520;28;20148;-80
2022/11/03 20:29:59;;;;;;;0.63;0.55;;;;;;;10.58;100.00;100238.94;10453434;28;20045;-80
2022/11/03 20:35:01;;;;;;;3.85;1.25;;;;;;;10.60;100.00;100244.13;10457388;28;20045;-81
2022/11/03 20:40:03;;;;;;;1.10;0.32;;;;;;;10.67;100.00;100250.22;10445511;28;20037;-80
2022/11/03 20:45:19;;;;;;;0.05;0.05;;;;;;;10.62;100.00;100257.88;10441270;28;20079;-80
2022/11/03 20:50:21;;;;;;;0.28;0.28;;;;;;;10.60;100.00;100267.31;10439336;28;20033;-80
2022/11/03 20:55:25;;;;;;;0.03;0.03;;;;;;;10.53;100.00;100262.91;10440229;28;20088;-80
2022/11/03 21:00:27;;;;;;;0.57;0.57;;;;;;;10.52;100.00;100264.59;10453462;28;20073;-80
2022/11/03 21:05:28;;;;;;;0.73;0.50;;;;;;;10.61;100.00;100279.34;10445216;28;20036;-79
2022/11/03 21:10:30;;;;;;;0.70;0.40;;;;;;;10.57;100.00;100259.53;10440707;28;20051;-79
2022/11/03 21:21:12;;;;;;;0.50;0.50;;;;;;;10.66;100.00;100272.56;10445768;28;20641;-80
2022/11/03 21:26:21;;;;;;;0.10;0.10;;;;;;;10.66;100.00;100267.41;10432925;28;20047;-79
2022/11/03 21:31:23;;;;;;;1.75;0.63;;;;;;;10.65;100.00;100257.94;10440569;28;20469;-81
2022/11/03 21:36:25;;;;;;;0.88;0.20;;;;;;;10.66;100.00;100267.41;10428991;28;20401;-79
2022/11/03 21:46:47;;;;;;;0.20;0.20;;;;;;;10.73;100.00;100274.38;10443331;28;20045;-81
2022/11/03 21:51:49;;;;;;;0.55;0.22;;;;;;;10.85;100.00;100278.84;10422770;28;20045;-80
2022/11/03 21:56:52;;;;;;;0.10;0.10;;;;;;;10.87;100.00;100263.41;10428567;28;20416;-80
2022/11/03 22:01:54;;;;;;;1.00;0.77;;;;;;;10.93;100.00;100258.31;10448510;28;20133;-80
2022/11/03 22:06:57;;;;;;;0.00;0.00;;;;;;;10.87;100.00;100258.25;10458101;28;20049;-80
2022/11/03 22:11:59;;;;;;;0.22;0.17;;;;;;;10.84;100.00;100229.84;10451428;28;20123;-80
2022/11/03 22:17:01;;;;;;;0.50;0.50;;;;;;;10.85;100.00;100232.47;10449395;28;20064;-81
2022/11/03 22:27:29;;;;;;;5.25;0.88;;;;;;;10.83;100.00;100234.16;10452064;28;20504;-80
2022/11/03 22:32:30;;;;;;;0.28;0.28;;;;;;;10.81;100.00;100240.13;10435216;28;20061;-81
2022/11/03 22:37:32;;;;;;;4.75;0.75;;;;;;;10.61;100.00;100253.59;10426337;28;20118;-80
2022/11/03 22:47:55;;;;;;;0.98;0.73;;;;;;;10.42;100.00;100284.19;10430417;28;20049;-82
2022/11/03 22:52:58;;;;;;;0.55;0.28;;;;;;;10.39;100.00;100315.03;10430586;28;20163;-82
2022/11/03 22:57:59;;;;;;;0.55;0.45;;;;;;;10.31;100.00;100327.75;10441161;28;20065;-82
2022/11/03 23:03:01;;;;;;;0.10;0.10;;;;;;;10.32;100.00;100346.63;10451903;28;20033;-81
2022/11/03 23:08:02;;;;;;;1.15;0.75;;;;;;;10.21;100.00;100351.59;10455711;28;20132;-82
2022/11/03 23:13:04;;;;;;;0.55;0.32;;;;;;;10.15;100.00;100357.50;10450692;28;20088;-83
2022/11/03 23:28:47;;;;;;;0.00;0.00;;;;;;;9.96;100.00;100355.41;10454919;28;20056;-81
2022/11/03 23:33:48;;;;;;;0.35;0.32;;;;;;;9.93;100.00;100365.66;10454857;28;20047;-81
2022/11/03 23:38:50;;;;;;;0.32;0.32;;;;;;;9.86;100.00;100366.38;10454676;28;20140;-81
2022/11/03 23:43:52;;;;;;;0.00;0.00;;;;;;;9.74;100.00;100370.41;10424297;28;20072;-80
2022/11/03 23:48:54;;;;;;;0.05;0.00;;;;;;;9.67;100.00;100386.53;10455252;28;20488;-81
2022/11/03 23:53:57;;;;;;;0.00;0.00;;;;;;;9.60;100.00;100382.09;10460778;28;20049;-82
2022/11/03 23:59:00;;;;;;;0.40;0.10;;;;;;;9.61;100.00;100409.56;10452947;28;20535;-81
